createdAt,value
2023-01-12T00:02:21.593Z,25.50
2023-01-12T00:07:24.569Z,23.70
2023-01-12T00:12:27.411Z,23.40
2023-01-12T00:17:30.162Z,27.50
2023-01-12T00:22:34.613Z,22.10
2023-01-12T00:27:37.349Z,26.00
2023-01-12T00:32:40.179Z,22.00
2023-01-12T00:37:42.955Z,28.30
2023-01-12T00:43:04.538Z,28.60
2023-01-12T00:48:12.848Z,26.10
2023-01-12T00:53:15.578Z,26.90
2023-01-12T00:58:18.329Z,30.40
2023-01-12T01:03:21.069Z,26.40
2023-01-12T01:08:23.842Z,27.40
2023-01-12T01:13:26.563Z,29.20
2023-01-12T01:18:30.411Z,27.20
2023-01-12T01:23:35.815Z,26.60
2023-01-12T01:28:39.288Z,25.50
2023-01-12T01:33:43.187Z,26.50
2023-01-12T01:38:47.741Z,28.40
2023-01-12T01:44:02.640Z,24.00
2023-01-12T01:49:28.724Z,26.90
2023-01-12T01:54:36.745Z,26.30
2023-01-12T01:59:45.719Z,25.90
2023-01-12T02:04:48.698Z,26.40
2023-01-12T02:09:51.560Z,21.30
2023-01-12T02:15:14.593Z,28.30
2023-01-12T02:20:51.020Z,28.50
2023-01-12T02:26:06.048Z,32.20
2023-01-12T02:31:40.692Z,28.10
2023-01-12T02:36:46.579Z,30.20
2023-01-12T02:42:48.047Z,28.50
2023-01-12T02:47:56.742Z,22.70
2023-01-12T02:53:22.715Z,25.60
2023-01-12T02:58:27.628Z,27.60
2023-01-12T03:03:31.344Z,27.10
2023-01-12T03:08:39.380Z,28.20
2023-01-12T03:13:50.525Z,30.00
2023-01-12T03:19:10.000Z,22.60
2023-01-12T03:24:21.889Z,27.80
2023-01-12T03:29:36.017Z,30.30
2023-01-12T03:34:39.029Z,24.60
2023-01-12T03:39:53.701Z,28.90
2023-01-12T03:45:30.349Z,30.70
2023-01-12T03:55:56.366Z,30.60
2023-01-12T04:00:59.212Z,23.60
2023-01-12T04:06:02.049Z,28.70
2023-01-12T04:11:24.898Z,28.70
2023-01-12T04:16:27.678Z,29.30
2023-01-12T04:21:49.100Z,30.40
2023-01-12T04:26:51.899Z,23.20
2023-01-12T04:31:54.679Z,24.20
2023-01-12T04:36:57.721Z,21.00
2023-01-12T04:42:00.559Z,18.20
2023-01-12T04:47:03.491Z,18.40
2023-01-12T04:52:06.236Z,20.70
2023-01-12T04:57:08.960Z,20.60
2023-01-12T05:02:12.015Z,20.10
2023-01-12T05:07:16.206Z,19.70
2023-01-12T05:12:19.148Z,19.20
2023-01-12T05:17:21.930Z,19.70
2023-01-12T05:22:24.743Z,15.80
2023-01-12T05:27:27.558Z,19.50
2023-01-12T05:32:30.330Z,20.50
2023-01-12T05:37:33.095Z,18.70
2023-01-12T05:42:54.580Z,21.30
2023-01-12T05:47:59.409Z,16.50
2023-01-12T05:53:02.581Z,20.20
2023-01-12T05:58:05.661Z,17.40
2023-01-12T06:03:08.409Z,18.40
2023-01-12T06:08:12.290Z,16.90
2023-01-12T06:13:34.775Z,15.30
2023-01-12T06:18:39.241Z,14.10
2023-01-12T06:23:42.096Z,14.50
2023-01-12T06:28:44.978Z,15.10
2023-01-12T06:33:47.781Z,13.30
2023-01-12T06:38:54.061Z,15.10
2023-01-12T06:43:57.852Z,12.60
2023-01-12T06:49:00.758Z,14.90
2023-01-12T06:54:03.666Z,18.30
2023-01-12T06:59:07.822Z,16.70
2023-01-12T07:04:13.684Z,14.90
2023-01-12T07:09:17.579Z,16.50
2023-01-12T07:14:20.521Z,14.80
2023-01-12T07:19:23.994Z,14.70
2023-01-12T07:24:26.812Z,16.20
2023-01-12T07:29:29.741Z,15.40
2023-01-12T07:34:32.774Z,20.90
2023-01-12T07:39:35.614Z,18.90
2023-01-12T07:44:40.359Z,17.90
2023-01-12T07:49:44.954Z,18.60
2023-01-12T07:54:48.113Z,15.80
2023-01-12T07:59:51.317Z,16.70
2023-01-12T08:04:55.033Z,23.00
2023-01-12T08:09:58.079Z,25.40
2023-01-12T08:15:01.024Z,25.50
2023-01-12T08:20:14.429Z,22.60
2023-01-12T08:25:28.537Z,16.80
2023-01-12T08:30:31.887Z,20.20
2023-01-12T08:35:36.038Z,15.50
2023-01-12T08:40:57.680Z,16.60
2023-01-12T08:46:08.631Z,21.10
2023-01-12T08:51:12.486Z,15.70
2023-01-12T08:56:19.723Z,14.20
2023-01-12T09:01:23.178Z,18.40
2023-01-12T09:06:31.582Z,14.10
2023-01-12T09:11:35.932Z,13.40
2023-01-12T09:16:39.404Z,14.50
2023-01-12T09:21:43.817Z,12.10
2023-01-12T09:26:47.206Z,8.40
2023-01-12T09:31:50.367Z,13.00
2023-01-12T09:36:53.304Z,14.30
2023-01-12T09:42:16.998Z,13.20
2023-01-12T09:47:26.024Z,12.10
2023-01-12T09:52:36.665Z,14.20
2023-01-12T09:57:58.193Z,14.00
2023-01-12T10:03:21.223Z,11.20
2023-01-12T10:08:47.407Z,12.90
2023-01-12T10:19:08.918Z,16.50
2023-01-12T10:24:13.298Z,15.00
2023-01-12T10:29:16.520Z,13.50
2023-01-12T10:34:19.613Z,11.50
2023-01-12T10:39:31.145Z,12.20
2023-01-12T10:44:35.734Z,12.10
2023-01-12T10:49:39.419Z,12.80
2023-01-12T10:54:50.044Z,11.10
2023-01-12T11:00:02.900Z,13.00
2023-01-12T11:05:30.797Z,9.50
2023-01-12T11:10:39.939Z,11.90
2023-01-12T11:16:01.200Z,14.90
2023-01-12T11:21:11.553Z,7.90
2023-01-12T11:26:24.731Z,10.50
2023-01-12T11:31:39.447Z,11.40
2023-01-12T11:36:46.729Z,8.90
2023-01-12T11:42:12.506Z,10.10
2023-01-12T11:47:20.884Z,11.80
2023-01-12T11:52:26.165Z,8.80
2023-01-12T11:57:52.039Z,11.50
2023-01-12T12:03:30.526Z,9.40
2023-01-12T12:09:19.017Z,11.00
2023-01-12T12:14:38.772Z,11.10
2023-01-12T12:20:18.594Z,8.30
2023-01-12T12:25:27.340Z,9.20
2023-01-12T12:30:45.990Z,12.80
2023-01-12T12:36:06.987Z,10.20
2023-01-12T12:41:38.892Z,8.70
2023-01-12T12:47:07.994Z,9.70
2023-01-12T12:52:13.393Z,10.60
2023-01-12T12:57:16.503Z,10.20
2023-01-12T13:02:41.140Z,9.30
2023-01-12T13:07:51.718Z,11.30
2023-01-12T13:13:44.249Z,7.90
2023-01-12T13:18:52.950Z,11.20
2023-01-12T13:24:14.064Z,9.50
2023-01-12T13:29:29.079Z,12.10
2023-01-12T13:34:32.230Z,10.70
2023-01-12T13:39:38.080Z,12.70
2023-01-12T13:44:44.759Z,10.40
2023-01-12T13:49:52.990Z,9.10
2023-01-12T13:54:56.185Z,10.30
2023-01-12T14:00:11.272Z,8.30
2023-01-12T14:05:17.340Z,15.50
2023-01-12T14:10:33.075Z,14.10
2023-01-12T14:16:03.544Z,11.70
2023-01-12T14:21:21.221Z,11.20
2023-01-12T14:26:27.131Z,8.80
2023-01-12T14:31:39.577Z,10.40
2023-01-12T14:36:45.464Z,7.90
2023-01-12T14:42:14.247Z,9.10
2023-01-12T14:47:28.435Z,12.20
2023-01-12T14:52:33.625Z,11.50
2023-01-12T14:57:37.254Z,9.80
2023-01-12T15:02:41.561Z,12.80
2023-01-12T15:08:00.068Z,9.70
2023-01-12T15:13:24.861Z,15.30
2023-01-12T15:18:48.535Z,12.20
2023-01-12T15:24:09.888Z,9.90
2023-01-12T15:29:12.757Z,13.80
2023-01-12T15:34:16.913Z,10.80
2023-01-12T15:39:19.738Z,11.30
2023-01-12T15:44:22.610Z,12.90
2023-01-12T15:49:25.557Z,9.10
2023-01-12T15:54:28.416Z,12.50
2023-01-12T15:59:31.196Z,11.90
2023-01-12T16:04:42.570Z,11.10
2023-01-12T16:09:47.881Z,14.80
2023-01-12T16:14:51.277Z,6.70
2023-01-12T16:19:54.139Z,10.20
2023-01-12T16:24:59.864Z,15.90
2023-01-12T16:30:03.609Z,10.70
2023-01-12T16:35:06.787Z,8.70
2023-01-12T16:40:10.332Z,12.90
2023-01-12T16:45:14.001Z,11.10
2023-01-12T16:50:16.861Z,11.10
2023-01-12T16:55:19.644Z,11.50
2023-01-12T17:00:22.736Z,9.90
2023-01-12T17:05:26.025Z,20.80
2023-01-12T17:10:28.934Z,10.40
2023-01-12T17:15:33.618Z,8.70
2023-01-12T17:20:36.659Z,9.40
2023-01-12T17:25:39.520Z,9.80
2023-01-12T17:30:43.059Z,11.90
2023-01-12T17:35:46.227Z,10.30
2023-01-12T17:40:49.195Z,9.50
2023-01-12T17:45:52.487Z,10.10
2023-01-12T17:50:55.354Z,9.60
2023-01-12T17:56:02.583Z,9.90
2023-01-12T18:01:13.426Z,11.40
2023-01-12T18:06:25.749Z,6.30
2023-01-12T18:11:31.364Z,10.60
2023-01-12T18:16:36.105Z,9.90
2023-01-12T18:21:38.878Z,9.60
2023-01-12T18:26:41.788Z,6.60
2023-01-12T18:31:47.496Z,9.50
2023-01-12T18:36:50.448Z,6.20
2023-01-12T18:42:11.871Z,11.00
2023-01-12T18:47:33.877Z,10.40
2023-01-12T18:52:55.171Z,9.70
2023-01-12T18:57:57.958Z,10.00
2023-01-12T19:03:00.875Z,8.50
2023-01-12T19:08:23.709Z,10.20
2023-01-12T19:13:45.828Z,7.90
2023-01-12T19:18:48.587Z,9.60
2023-01-12T19:24:10.513Z,9.20
2023-01-12T19:29:13.319Z,7.60
2023-01-12T19:34:16.163Z,10.20
2023-01-12T19:39:27.080Z,9.30
2023-01-12T19:44:30.029Z,11.30
2023-01-12T19:49:32.997Z,7.80
2023-01-12T19:54:36.102Z,10.10
2023-01-12T19:59:38.930Z,7.40
2023-01-12T20:04:41.715Z,8.90
2023-01-12T20:09:45.998Z,10.00
2023-01-12T20:14:48.800Z,7.80
2023-01-12T20:19:57.687Z,12.10
2023-01-12T20:25:04.023Z,9.80
2023-01-12T20:30:08.248Z,7.00
2023-01-12T20:35:18.978Z,9.60
2023-01-12T20:40:21.851Z,13.10
2023-01-12T20:45:25.270Z,7.30
2023-01-12T20:50:30.112Z,8.60
2023-01-12T20:55:33.080Z,7.70
2023-01-12T21:00:36.319Z,10.10
2023-01-12T21:05:44.280Z,10.80
2023-01-12T21:10:50.191Z,8.90
2023-01-12T21:16:04.611Z,9.60
2023-01-12T21:21:08.395Z,11.60
2023-01-12T21:26:11.380Z,12.60
2023-01-12T21:31:14.423Z,9.30
2023-01-12T21:36:19.059Z,10.50
2023-01-12T21:41:22.591Z,9.20
2023-01-12T21:46:25.999Z,8.20
2023-01-12T21:51:29.199Z,9.50
2023-01-12T21:56:32.026Z,9.50
2023-01-12T22:01:35.089Z,10.30
2023-01-12T22:06:38.000Z,11.30
2023-01-12T22:11:40.977Z,12.40
2023-01-12T22:16:43.719Z,9.50
2023-01-12T22:21:46.510Z,12.50
2023-01-12T22:26:49.270Z,10.70
2023-01-12T22:31:52.122Z,16.30
2023-01-12T22:36:56.809Z,7.90
2023-01-12T22:41:59.569Z,12.70
2023-01-12T22:47:02.322Z,9.10
2023-01-12T22:52:05.521Z,9.80
2023-01-12T22:57:09.786Z,11.20
2023-01-12T23:02:31.683Z,12.80
2023-01-12T23:07:34.646Z,12.50
2023-01-12T23:12:37.496Z,8.20
2023-01-12T23:17:40.472Z,9.50
2023-01-12T23:22:43.834Z,7.40
2023-01-12T23:27:46.660Z,8.30
2023-01-12T23:32:49.545Z,10.70
2023-01-12T23:37:53.480Z,9.60
2023-01-12T23:42:56.596Z,8.40
2023-01-12T23:47:59.413Z,8.50
2023-01-12T23:53:02.253Z,11.00
2023-01-12T23:58:06.523Z,9.20
